createdAt,value
2023-01-23T00:01:07.812Z,103710.75
2023-01-23T00:03:34.588Z,103705.34
2023-01-23T00:06:03.648Z,103699.06
2023-01-23T00:08:30.591Z,103701.78
2023-01-23T00:10:57.553Z,103699.94
2023-01-23T00:13:24.819Z,103699.97
2023-01-23T00:15:52.102Z,103696.38
2023-01-23T00:18:18.845Z,103693.66
2023-01-23T00:20:45.527Z,103684.69
2023-01-23T00:23:12.535Z,103690.94
2023-01-23T00:25:39.312Z,103690.97
2023-01-23T00:28:06.038Z,103675.75
2023-01-23T00:30:33.536Z,103676.66
2023-01-23T00:33:00.519Z,103679.34
2023-01-23T00:35:27.280Z,103671.28
2023-01-23T00:37:54.093Z,103677.56
2023-01-23T00:40:20.979Z,103676.63
2023-01-23T00:42:47.882Z,103681.97
2023-01-23T00:45:14.628Z,103675.75
2023-01-23T00:47:41.332Z,103674.88
2023-01-23T00:50:08.752Z,103677.53
2023-01-23T00:52:35.552Z,103682.91
2023-01-23T00:55:02.823Z,103681.13
2023-01-23T00:57:30.399Z,103679.31
2023-01-23T00:59:57.152Z,103679.34
2023-01-23T01:02:23.853Z,103675.75
2023-01-23T01:04:50.608Z,103675.75
2023-01-23T01:07:17.348Z,103673.06
2023-01-23T01:09:44.088Z,103680.25
2023-01-23T01:12:10.862Z,103683.75
2023-01-23T01:14:37.531Z,103684.66
2023-01-23T01:17:04.242Z,103686.50
2023-01-23T01:19:30.980Z,103680.25
2023-01-23T01:21:57.789Z,103682.06
2023-01-23T01:24:24.969Z,103671.28
2023-01-23T01:26:51.780Z,103669.47
2023-01-23T01:29:18.541Z,103668.59
2023-01-23T01:31:45.310Z,103669.47
2023-01-23T01:34:13.199Z,103664.09
2023-01-23T01:36:40.001Z,103662.31
2023-01-23T01:39:06.687Z,103665.03
2023-01-23T01:41:37.192Z,103672.19
2023-01-23T01:44:04.193Z,103675.75
2023-01-23T01:46:32.338Z,103682.00
2023-01-23T01:49:26.636Z,103675.72
2023-01-23T01:52:02.997Z,103679.28
2023-01-23T01:54:29.663Z,103672.13
2023-01-23T01:57:09.702Z,103675.66
2023-01-23T01:59:40.833Z,103660.47
2023-01-23T02:02:12.859Z,103659.63
2023-01-23T02:04:46.370Z,103648.84
2023-01-23T02:07:37.427Z,103660.47
2023-01-23T02:10:06.856Z,103657.81
2023-01-23T02:12:35.295Z,103652.47
2023-01-23T02:15:04.121Z,103649.75
2023-01-23T02:17:31.912Z,103645.28
2023-01-23T02:20:25.534Z,103639.91
2023-01-23T02:23:16.964Z,103639.03
2023-01-23T02:25:43.709Z,103639.03
2023-01-23T02:28:12.543Z,103648.00
2023-01-23T02:30:42.413Z,103642.63
2023-01-23T02:33:32.128Z,103646.19
2023-01-23T02:35:59.819Z,103647.09
2023-01-23T02:38:33.818Z,103639.91
2023-01-23T02:41:03.158Z,103633.63
2023-01-23T02:43:38.357Z,103642.59
2023-01-23T02:46:12.062Z,103640.78
2023-01-23T02:48:44.393Z,103645.25
2023-01-23T02:51:11.198Z,103644.38
2023-01-23T02:53:38.118Z,103642.59
2023-01-23T02:56:05.352Z,103650.69
2023-01-23T02:58:50.707Z,103649.78
2023-01-23T03:01:17.460Z,103655.13
2023-01-23T03:03:44.290Z,103648.88
2023-01-23T03:06:11.662Z,103655.13
2023-01-23T03:08:49.213Z,103664.13
2023-01-23T03:11:18.592Z,103650.69
2023-01-23T03:13:47.189Z,103650.63
2023-01-23T03:16:14.427Z,103655.13
2023-01-23T03:18:53.648Z,103660.50
2023-01-23T03:21:21.351Z,103656.94
2023-01-23T03:23:48.400Z,103656.03
2023-01-23T03:26:15.499Z,103651.56
2023-01-23T03:29:00.754Z,103650.66
2023-01-23T03:31:27.541Z,103647.09
2023-01-23T03:33:54.240Z,103637.25
2023-01-23T03:36:21.123Z,103638.16
2023-01-23T03:39:06.332Z,103640.78
2023-01-23T03:41:33.048Z,103648.84
2023-01-23T03:43:59.691Z,103645.28
2023-01-23T03:46:26.391Z,103650.66
2023-01-23T03:48:53.125Z,103638.13
2023-01-23T03:51:19.990Z,103630.97
2023-01-23T03:53:46.649Z,103641.72
2023-01-23T03:56:13.341Z,103635.47
2023-01-23T03:58:40.051Z,103633.69
2023-01-23T04:01:08.069Z,103627.38
2023-01-23T04:03:35.134Z,103630.09
2023-01-23T04:06:02.385Z,103630.97
2023-01-23T04:08:29.656Z,103624.69
2023-01-23T04:11:08.282Z,103621.13
2023-01-23T04:13:35.488Z,103614.84
2023-01-23T04:16:02.866Z,103615.75
2023-01-23T04:18:31.520Z,103619.34
2023-01-23T04:20:58.621Z,103622.94
2023-01-23T04:23:27.983Z,103616.66
2023-01-23T04:25:54.663Z,103619.34
2023-01-23T04:28:21.423Z,103627.41
2023-01-23T04:30:50.040Z,103610.38
2023-01-23T04:33:17.599Z,103615.75
2023-01-23T04:35:57.515Z,103609.50
2023-01-23T04:38:26.073Z,103599.66
2023-01-23T04:40:53.447Z,103604.13
2023-01-23T04:43:20.570Z,103606.78
2023-01-23T04:45:50.416Z,103619.34
2023-01-23T04:48:17.166Z,103625.59
2023-01-23T04:50:43.827Z,103628.28
2023-01-23T04:53:11.282Z,103623.81
2023-01-23T04:55:41.178Z,103621.13
2023-01-23T04:58:08.073Z,103622.03
2023-01-23T05:00:34.745Z,103626.53
2023-01-23T05:03:02.672Z,103624.72
2023-01-23T05:05:29.543Z,103634.56
2023-01-23T05:07:56.233Z,103628.28
2023-01-23T05:10:23.243Z,103626.50
2023-01-23T05:12:50.009Z,103624.75
2023-01-23T05:15:17.403Z,103623.81
2023-01-23T05:17:44.375Z,103626.53
2023-01-23T05:20:11.632Z,103613.09
2023-01-23T05:22:39.415Z,103617.56
2023-01-23T05:25:06.910Z,103614.88
2023-01-23T05:27:33.610Z,103621.16
2023-01-23T05:30:00.266Z,103616.66
2023-01-23T05:32:27.017Z,103611.25
2023-01-23T05:34:57.055Z,103615.72
2023-01-23T05:37:25.834Z,103604.13
2023-01-23T05:39:55.294Z,103613.94
2023-01-23T05:42:22.011Z,103588.00
2023-01-23T05:44:48.695Z,103590.69
2023-01-23T05:47:15.424Z,103598.72
2023-01-23T05:49:42.177Z,103596.94
2023-01-23T05:52:08.882Z,103590.69
2023-01-23T05:54:35.584Z,103598.72
2023-01-23T05:57:02.236Z,103587.97
2023-01-23T05:59:28.905Z,103596.06
2023-01-23T06:01:55.645Z,103594.28
2023-01-23T06:04:22.324Z,103599.63
2023-01-23T06:06:49.008Z,103593.38
2023-01-23T06:09:15.880Z,103601.44
2023-01-23T06:11:42.614Z,103607.69
2023-01-23T06:14:09.290Z,103598.75
2023-01-23T06:16:36.014Z,103596.94
2023-01-23T06:19:02.729Z,103605.00
2023-01-23T06:21:29.403Z,103596.03
2023-01-23T06:23:56.039Z,103611.25
2023-01-23T06:26:22.742Z,103605.88
2023-01-23T06:28:49.728Z,103613.94
2023-01-23T06:31:16.505Z,103619.22
2023-01-23T06:33:43.272Z,103613.84
2023-01-23T06:36:10.623Z,103620.03
2023-01-23T06:38:38.477Z,103616.41
2023-01-23T06:41:05.370Z,103619.97
2023-01-23T06:43:32.001Z,103614.56
2023-01-23T06:45:58.834Z,103614.56
2023-01-23T06:48:25.600Z,103610.97
2023-01-23T06:50:52.301Z,103609.22
2023-01-23T06:53:19.425Z,103619.09
2023-01-23T06:55:46.308Z,103611.81
2023-01-23T06:58:12.973Z,103606.50
2023-01-23T07:00:40.073Z,103605.59
2023-01-23T07:03:06.842Z,103605.56
2023-01-23T07:05:37.033Z,103605.63
2023-01-23T07:08:04.971Z,103597.56
2023-01-23T07:10:32.375Z,103602.00
2023-01-23T07:12:59.093Z,103609.13
2023-01-23T07:15:25.832Z,103609.94
2023-01-23T07:17:53.109Z,103601.94
2023-01-23T07:20:20.589Z,103602.84
2023-01-23T07:22:47.634Z,103595.72
2023-01-23T07:25:14.316Z,103591.25
2023-01-23T07:27:41.202Z,103588.59
2023-01-23T07:30:08.686Z,103588.56
2023-01-23T07:32:35.344Z,103582.31
2023-01-23T07:35:02.005Z,103585.09
2023-01-23T07:37:28.654Z,103594.91
2023-01-23T07:39:55.349Z,103590.44
2023-01-23T07:42:22.127Z,103594.00
2023-01-23T07:44:48.824Z,103585.88
2023-01-23T07:47:15.554Z,103596.63
2023-01-23T07:49:42.276Z,103595.78
2023-01-23T07:52:09.023Z,103596.66
2023-01-23T07:54:35.755Z,103585.91
2023-01-23T07:57:02.473Z,103585.06
2023-01-23T07:59:29.273Z,103572.63
2023-01-23T08:01:55.981Z,103577.06
2023-01-23T08:04:22.759Z,103585.09
2023-01-23T08:06:49.592Z,103582.41
2023-01-23T08:09:16.308Z,103577.06
2023-01-23T08:11:43.089Z,103573.53
2023-01-23T08:14:11.765Z,103563.72
2023-01-23T08:16:38.562Z,103567.31
2023-01-23T08:19:08.311Z,103562.84
2023-01-23T08:21:35.496Z,103552.13
2023-01-23T08:24:04.783Z,103557.50
2023-01-23T08:26:31.560Z,103563.78
2023-01-23T08:28:58.370Z,103567.34
2023-01-23T08:31:25.148Z,103573.66
2023-01-23T08:33:51.865Z,103562.94
2023-01-23T08:36:18.635Z,103568.28
2023-01-23T08:38:45.345Z,103568.28
2023-01-23T08:41:12.090Z,103563.81
2023-01-23T08:43:41.296Z,103566.50
2023-01-23T08:46:09.103Z,103564.69
2023-01-23T08:48:35.807Z,103567.38
2023-01-23T08:51:05.905Z,103563.81
2023-01-23T08:53:33.394Z,103567.38
2023-01-23T08:56:02.114Z,103570.97
2023-01-23T08:58:28.901Z,103576.38
2023-01-23T09:00:55.698Z,103585.28
2023-01-23T09:03:23.031Z,103589.78
2023-01-23T09:05:49.794Z,103599.66
2023-01-23T09:08:16.525Z,103601.44
2023-01-23T09:10:43.660Z,103607.72
2023-01-23T09:13:10.473Z,103609.50
2023-01-23T09:15:40.358Z,103605.00
2023-01-23T09:18:07.081Z,103606.81
2023-01-23T09:20:34.074Z,103611.28
2023-01-23T09:23:00.754Z,103615.75
2023-01-23T09:25:27.503Z,103622.94
2023-01-23T09:27:54.194Z,103632.78
2023-01-23T09:30:21.197Z,103639.06
2023-01-23T09:32:47.983Z,103639.06
2023-01-23T09:35:15.077Z,103637.25
2023-01-23T09:38:00.976Z,103635.47
2023-01-23T09:40:43.426Z,103640.84
2023-01-23T09:43:39.838Z,103640.88
2023-01-23T09:46:21.726Z,103658.78
2023-01-23T09:48:59.305Z,103653.41
2023-01-23T09:51:52.703Z,103665.97
2023-01-23T09:54:31.160Z,103672.22
2023-01-23T09:57:02.729Z,103676.72
2023-01-23T09:59:38.893Z,103681.16
2023-01-23T10:02:20.859Z,103680.28
2023-01-23T10:04:49.918Z,103693.75
2023-01-23T10:07:37.691Z,103700.94
2023-01-23T10:10:15.992Z,103706.28
2023-01-23T10:13:18.188Z,103704.50
2023-01-23T10:15:52.827Z,103712.56
2023-01-23T10:18:55.505Z,103724.22
2023-01-23T10:21:39.054Z,103728.69
2023-01-23T10:24:40.605Z,103731.41
2023-01-23T10:27:18.856Z,103734.97
2023-01-23T10:30:02.298Z,103737.66
2023-01-23T10:32:37.543Z,103741.25
2023-01-23T10:35:12.582Z,103766.38
2023-01-23T10:37:54.103Z,103752.00
2023-01-23T10:40:42.699Z,103759.19
2023-01-23T10:43:20.847Z,103760.09
2023-01-23T10:45:49.651Z,103774.44
2023-01-23T10:48:28.740Z,103775.34
2023-01-23T10:50:58.204Z,103774.44
2023-01-23T10:53:25.868Z,103787.00
2023-01-23T10:55:59.473Z,103789.66
2023-01-23T10:58:32.949Z,103798.63
2023-01-23T11:01:00.419Z,103800.44
2023-01-23T11:03:31.006Z,103805.81
2023-01-23T11:06:05.818Z,103807.59
2023-01-23T11:08:38.441Z,103813.00
2023-01-23T11:11:25.017Z,103810.31
2023-01-23T11:14:05.036Z,103814.78
2023-01-23T11:16:32.220Z,103824.66
2023-01-23T11:19:15.859Z,103830.91
2023-01-23T11:21:53.925Z,103824.66
2023-01-23T11:24:40.800Z,103824.66
2023-01-23T11:27:14.484Z,103836.31
2023-01-23T11:29:56.378Z,103837.22
2023-01-23T11:32:24.474Z,103838.13
2023-01-23T11:34:57.214Z,103844.41
2023-01-23T11:37:30.525Z,103856.97
2023-01-23T11:40:05.414Z,103853.38
2023-01-23T11:42:35.856Z,103851.56
2023-01-23T11:45:02.722Z,103843.50
2023-01-23T11:47:51.444Z,103835.41
2023-01-23T11:50:30.234Z,103839.00
2023-01-23T11:53:18.118Z,103848.00
2023-01-23T11:56:08.312Z,103847.06
2023-01-23T11:58:53.831Z,103852.47
2023-01-23T12:01:29.360Z,103863.25
2023-01-23T12:04:20.237Z,103864.13
2023-01-23T12:07:02.327Z,103871.25
2023-01-23T12:09:43.517Z,103875.75
2023-01-23T12:12:44.837Z,103883.88
2023-01-23T12:15:20.788Z,103878.50
2023-01-23T12:17:53.278Z,103876.72
2023-01-23T12:21:07.971Z,103885.66
2023-01-23T12:23:37.804Z,103891.06
2023-01-23T12:26:11.494Z,103887.47
2023-01-23T12:28:47.273Z,103901.81
2023-01-23T12:31:38.177Z,103904.53
2023-01-23T12:34:59.112Z,103915.28
2023-01-23T12:37:47.165Z,103924.28
2023-01-23T12:40:37.263Z,103927.84
2023-01-23T12:43:19.089Z,103933.22
2023-01-23T12:45:51.218Z,103933.25
2023-01-23T12:48:42.097Z,103935.94
2023-01-23T12:51:22.262Z,103941.28
2023-01-23T12:53:52.605Z,103943.09
2023-01-23T12:56:35.987Z,103950.28
2023-01-23T12:59:08.115Z,103947.59
2023-01-23T13:01:59.201Z,103946.66
2023-01-23T13:04:53.837Z,103949.38
2023-01-23T13:07:39.341Z,103943.06
2023-01-23T13:10:57.802Z,103950.25
2023-01-23T13:13:24.965Z,103944.84
2023-01-23T13:16:13.437Z,103950.19
2023-01-23T13:18:59.140Z,103953.78
2023-01-23T13:21:44.365Z,103951.06
2023-01-23T13:25:03.448Z,103944.81
2023-01-23T13:27:37.585Z,103943.06
2023-01-23T13:30:31.565Z,103937.69
2023-01-23T13:33:07.051Z,103942.19
2023-01-23T13:35:39.783Z,103926.03
2023-01-23T13:38:21.626Z,103931.44
2023-01-23T13:41:11.736Z,103928.75
2023-01-23T13:43:42.059Z,103921.56
2023-01-23T13:46:39.561Z,103925.16
2023-01-23T14:21:46.635Z,103898.22
2023-01-23T14:24:51.321Z,103894.63
2023-01-23T14:27:52.103Z,103883.84
2023-01-23T14:30:26.757Z,103892.81
2023-01-23T14:32:53.748Z,103888.31
2023-01-23T14:35:27.347Z,103885.63
2023-01-23T14:37:57.812Z,103876.66
2023-01-23T14:40:28.272Z,103881.16
2023-01-23T14:43:03.666Z,103880.25
2023-01-23T14:45:33.505Z,103872.19
2023-01-23T14:48:06.061Z,103876.66
2023-01-23T14:50:34.268Z,103868.56
2023-01-23T14:53:06.230Z,103866.78
2023-01-23T14:55:38.313Z,103864.09
2023-01-23T14:58:06.048Z,103865.88
2023-01-23T15:00:35.829Z,103862.31
2023-01-23T15:03:04.670Z,103864.09
2023-01-23T15:05:32.893Z,103870.38
2023-01-23T15:08:21.120Z,103875.75
2023-01-23T15:10:50.790Z,103871.25
2023-01-23T15:13:29.163Z,103862.28
2023-01-23T15:15:58.584Z,103867.66
2023-01-23T15:18:34.941Z,103872.16
2023-01-23T15:21:04.990Z,103878.44
2023-01-23T15:23:37.414Z,103881.97
2023-01-23T15:26:19.431Z,103892.69
2023-01-23T15:28:57.329Z,103891.84
2023-01-23T15:31:39.076Z,103887.31
2023-01-23T15:34:14.916Z,103890.00
2023-01-23T15:37:00.036Z,103887.31
2023-01-23T15:39:32.815Z,103883.75
2023-01-23T15:42:27.604Z,103887.31
2023-01-23T15:44:54.853Z,103891.78
2023-01-23T15:47:21.857Z,103898.97
2023-01-23T15:49:48.601Z,103897.16
2023-01-23T15:52:21.482Z,103889.06
2023-01-23T15:54:51.382Z,103883.72
2023-01-23T15:57:18.297Z,103897.16
2023-01-23T15:59:44.933Z,103890.88
2023-01-23T16:02:29.717Z,103883.69
2023-01-23T16:04:57.750Z,103881.00
2023-01-23T16:07:34.607Z,103879.19
2023-01-23T16:10:04.763Z,103881.84
2023-01-23T16:12:32.762Z,103877.34
2023-01-23T16:14:59.469Z,103877.28
2023-01-23T16:17:26.235Z,103876.38
2023-01-23T16:19:54.354Z,103869.22
2023-01-23T16:22:26.280Z,103857.59
2023-01-23T16:24:53.618Z,103863.00
2023-01-23T16:27:27.275Z,103850.47
2023-01-23T16:29:55.570Z,103837.97
2023-01-23T16:32:22.677Z,103845.09
2023-01-23T16:34:49.832Z,103837.00
2023-01-23T16:37:18.686Z,103834.31
2023-01-23T16:39:47.029Z,103834.28
2023-01-23T16:42:20.787Z,103827.19
2023-01-23T16:44:47.444Z,103823.63
2023-01-23T16:47:14.225Z,103823.66
2023-01-23T16:49:51.628Z,103829.00
2023-01-23T16:52:21.267Z,103831.66
2023-01-23T16:54:47.961Z,103816.41
2023-01-23T16:57:20.067Z,103816.38
2023-01-23T16:59:49.208Z,103821.75
2023-01-23T17:02:28.815Z,103816.44
2023-01-23T17:04:55.576Z,103815.53
2023-01-23T17:07:22.374Z,103811.03
2023-01-23T17:09:49.361Z,103811.94
2023-01-23T17:12:22.770Z,103802.13
2023-01-23T17:14:52.483Z,103810.16
2023-01-23T17:17:32.909Z,103802.09
2023-01-23T17:20:01.318Z,103806.56
2023-01-23T17:22:33.761Z,103806.47
2023-01-23T17:25:00.426Z,103811.84
2023-01-23T17:27:27.173Z,103802.00
2023-01-23T17:29:53.872Z,103814.53
2023-01-23T17:32:27.056Z,103805.56
2023-01-23T17:34:55.320Z,103800.19
2023-01-23T17:37:23.142Z,103797.50
2023-01-23T17:39:50.104Z,103798.44
2023-01-23T17:42:16.931Z,103783.25
2023-01-23T17:44:43.595Z,103792.19
2023-01-23T17:47:12.418Z,103794.84
2023-01-23T17:49:40.309Z,103787.66
2023-01-23T17:52:10.004Z,103783.22
2023-01-23T17:54:37.495Z,103782.28
2023-01-23T17:57:04.757Z,103789.47
2023-01-23T17:59:31.957Z,103780.53
2023-01-23T18:01:58.732Z,103783.19
2023-01-23T18:04:25.521Z,103779.63
2023-01-23T18:06:52.488Z,103766.22
2023-01-23T18:09:20.221Z,103766.22
2023-01-23T18:11:52.247Z,103767.09
2023-01-23T18:14:43.656Z,103765.31
2023-01-23T18:17:22.493Z,103755.47
2023-01-23T18:19:51.630Z,103758.16
2023-01-23T18:22:18.469Z,103761.75
2023-01-23T18:24:45.496Z,103757.28
2023-01-23T18:27:18.070Z,103760.84
2023-01-23T18:30:03.124Z,103751.84
2023-01-23T18:32:59.679Z,103750.91
2023-01-23T18:35:36.680Z,103740.19
2023-01-23T18:38:14.577Z,103735.69
2023-01-23T18:41:05.757Z,103725.91
2023-01-23T18:43:47.139Z,103734.00
2023-01-23T18:46:16.582Z,103725.03
2023-01-23T18:48:46.094Z,103722.31
2023-01-23T18:51:32.797Z,103720.50
2023-01-23T18:54:05.705Z,103722.34
2023-01-23T18:56:39.109Z,103710.69
2023-01-23T18:59:12.846Z,103708.03
2023-01-23T19:02:15.437Z,103706.25
2023-01-23T19:04:50.328Z,103702.66
2023-01-23T19:07:19.148Z,103702.66
2023-01-23T19:09:47.156Z,103708.94
2023-01-23T19:12:41.218Z,103700.00
2023-01-23T19:15:29.227Z,103703.56
2023-01-23T19:18:38.621Z,103699.97
2023-01-23T19:21:27.309Z,103704.47
2023-01-23T19:24:00.739Z,103696.34
2023-01-23T19:26:30.345Z,103688.34
2023-01-23T19:28:59.741Z,103691.91
2023-01-23T19:31:32.655Z,103690.13
2023-01-23T19:34:00.979Z,103689.25
2023-01-23T19:36:30.416Z,103687.41
2023-01-23T19:39:04.115Z,103687.44
2023-01-23T19:41:43.630Z,103687.44
2023-01-23T19:44:18.977Z,103689.22
2023-01-23T19:46:46.190Z,103682.94
2023-01-23T19:49:13.840Z,103676.69
2023-01-23T19:51:41.195Z,103673.13
2023-01-23T19:54:10.863Z,103678.50
2023-01-23T19:56:38.939Z,103678.50
2023-01-23T19:59:06.661Z,103683.84
2023-01-23T20:01:45.435Z,103688.34
2023-01-23T20:04:17.390Z,103684.75
2023-01-23T20:06:48.977Z,103689.19
2023-01-23T20:09:16.205Z,103693.69
2023-01-23T20:11:46.367Z,103691.00
2023-01-23T20:14:13.151Z,103693.69
2023-01-23T20:16:42.880Z,103693.69
2023-01-23T20:19:14.591Z,103691.03
2023-01-23T20:21:41.397Z,103696.41
2023-01-23T20:24:08.463Z,103699.97
2023-01-23T20:26:35.928Z,103702.66
2023-01-23T20:29:04.088Z,103704.47
2023-01-23T20:31:32.929Z,103703.56
2023-01-23T20:33:59.874Z,103704.47
2023-01-23T20:36:26.713Z,103705.34
2023-01-23T20:38:53.622Z,103706.25
2023-01-23T20:41:20.733Z,103712.53
2023-01-23T20:43:48.489Z,103719.69
2023-01-23T20:46:16.809Z,103726.84
2023-01-23T20:48:45.152Z,103723.25
2023-01-23T20:51:16.622Z,103714.28
2023-01-23T20:53:44.282Z,103715.13
2023-01-23T20:56:12.284Z,103716.94
2023-01-23T20:59:00.699Z,103716.03
2023-01-23T21:01:30.560Z,103718.75
2023-01-23T21:03:57.421Z,103711.63
2023-01-23T21:06:24.191Z,103712.53
2023-01-23T21:08:52.518Z,103713.41
2023-01-23T21:11:21.265Z,103711.59
2023-01-23T21:13:53.531Z,103722.38
2023-01-23T21:16:20.798Z,103717.88
2023-01-23T21:18:47.866Z,103731.31
2023-01-23T21:21:19.371Z,103730.38
2023-01-23T21:23:48.997Z,103720.56
2023-01-23T21:26:24.197Z,103732.19
2023-01-23T21:28:52.305Z,103736.66
2023-01-23T21:31:25.055Z,103733.97
2023-01-23T21:33:52.041Z,103739.31
2023-01-23T21:36:22.242Z,103745.56
2023-01-23T21:38:51.317Z,103754.56
2023-01-23T21:41:18.554Z,103745.59
2023-01-23T21:43:45.370Z,103744.72
2023-01-23T21:46:12.350Z,103752.78
2023-01-23T21:48:39.135Z,103751.88
2023-01-23T21:51:14.373Z,103757.25
2023-01-23T21:53:43.605Z,103753.63
2023-01-23T21:56:12.903Z,103757.22
2023-01-23T21:58:39.862Z,103745.59
2023-01-23T22:01:30.890Z,103742.88
2023-01-23T22:04:10.621Z,103745.59
2023-01-23T22:06:39.333Z,103743.81
2023-01-23T22:09:07.627Z,103746.50
2023-01-23T22:11:34.473Z,103747.38
2023-01-23T22:14:01.424Z,103746.47
2023-01-23T22:16:46.832Z,103744.69
2023-01-23T22:19:16.630Z,103750.06
2023-01-23T22:21:44.394Z,103749.09
2023-01-23T22:24:11.370Z,103746.44
2023-01-23T22:26:38.705Z,103751.84
2023-01-23T22:29:05.821Z,103753.63
2023-01-23T22:31:33.999Z,103748.25
2023-01-23T22:34:02.159Z,103745.59
2023-01-23T22:36:29.085Z,103752.75
2023-01-23T22:38:55.804Z,103750.06
2023-01-23T22:41:23.632Z,103750.03
2023-01-23T22:43:54.487Z,103753.50
2023-01-23T22:46:22.178Z,103750.81
2023-01-23T22:48:49.562Z,103747.25
2023-01-23T22:51:25.097Z,103744.63
2023-01-23T22:53:53.533Z,103736.59
2023-01-23T22:56:21.141Z,103746.44
2023-01-23T22:58:50.207Z,103739.25
2023-01-23T23:01:17.518Z,103745.56
2023-01-23T23:03:44.912Z,103743.78
2023-01-23T23:06:14.141Z,103750.03
2023-01-23T23:08:41.720Z,103746.41
2023-01-23T23:11:11.360Z,103743.75
2023-01-23T23:13:39.835Z,103747.34
2023-01-23T23:16:13.716Z,103741.03
2023-01-23T23:18:41.470Z,103738.41
2023-01-23T23:21:13.555Z,103734.78
2023-01-23T23:23:40.478Z,103736.59
2023-01-23T23:26:09.033Z,103733.91
2023-01-23T23:28:36.213Z,103724.97
2023-01-23T23:31:04.937Z,103730.31
2023-01-23T23:33:31.880Z,103720.47
2023-01-23T23:35:58.869Z,103724.94
2023-01-23T23:38:25.637Z,103728.56
2023-01-23T23:40:56.168Z,103729.44
2023-01-23T23:43:23.614Z,103730.31
2023-01-23T23:45:55.173Z,103731.19
2023-01-23T23:48:23.035Z,103727.59
2023-01-23T23:50:50.439Z,103720.47
2023-01-23T23:53:17.610Z,103727.63
2023-01-23T23:55:44.368Z,103727.63
2023-01-23T23:58:11.268Z,103732.13
